createdAt,value
2017-08-14T00:01:04.114Z,54.65
2017-08-14T00:02:13.735Z,54.46
2017-08-14T00:03:23.658Z,54.75
2017-08-14T00:04:33.603Z,54.65
2017-08-14T00:05:43.526Z,54.46
2017-08-14T00:06:53.447Z,54.46
2017-08-14T00:08:02.776Z,54.55
2017-08-14T00:09:12.382Z,54.46
2017-08-14T00:10:22.299Z,54.46
2017-08-14T00:11:32.544Z,54.46
2017-08-14T00:12:42.179Z,54.65
2017-08-14T00:13:52.417Z,54.46
2017-08-14T00:15:02.035Z,54.46
2017-08-14T00:16:11.669Z,54.36
2017-08-14T00:17:21.293Z,54.46
2017-08-14T00:18:30.919Z,54.46
2017-08-14T00:19:41.143Z,54.46
2017-08-14T00:20:51.390Z,54.46
2017-08-14T00:22:00.764Z,54.46
2017-08-14T00:23:11.037Z,54.36
2017-08-14T00:24:20.650Z,54.46
2017-08-14T00:25:30.588Z,54.27
2017-08-14T00:26:40.516Z,54.46
2017-08-14T00:27:50.760Z,54.36
2017-08-14T00:29:01.025Z,54.46
2017-08-14T00:30:10.966Z,54.46
2017-08-14T00:31:21.208Z,55.13
2017-08-14T00:32:31.146Z,55.04
2017-08-14T00:33:41.388Z,55.04
2017-08-14T00:34:51.309Z,54.91
2017-08-14T00:36:00.944Z,54.82
2017-08-14T00:37:11.214Z,54.72
2017-08-14T00:38:20.849Z,54.91
2017-08-14T00:39:30.767Z,55.01
2017-08-14T00:40:41.432Z,55.2
2017-08-14T00:41:51.064Z,55.3
2017-08-14T00:43:00.991Z,55.2
2017-08-14T00:44:10.954Z,55.59
2017-08-14T00:45:20.920Z,55.88
2017-08-14T00:46:31.164Z,55.68
2017-08-14T00:47:41.096Z,55.68
2017-08-14T00:48:50.406Z,55.78
2017-08-14T00:50:00.639Z,56.16
2017-08-14T00:51:22.754Z,56.14
2017-08-14T00:52:32.379Z,56.04
2017-08-14T00:53:42.306Z,55.94
2017-08-14T00:54:52.526Z,56.04
2017-08-14T00:56:02.451Z,55.85
2017-08-14T00:57:12.389Z,56.24
2017-08-14T00:58:22.681Z,56.04
2017-08-14T00:59:32.602Z,56.04
2017-08-14T01:00:42.839Z,56.04
2017-08-14T01:01:53.090Z,56.04
2017-08-14T01:03:03.327Z,56.04
2017-08-14T01:04:13.597Z,56.04
2017-08-14T01:05:22.910Z,56.24
2017-08-14T01:06:32.838Z,56.04
2017-08-14T01:07:42.763Z,56.43
2017-08-14T01:08:53.217Z,56.33
2017-08-14T01:10:02.975Z,56.14
2017-08-14T01:11:12.897Z,56.04
2017-08-14T01:12:22.511Z,55.94
2017-08-14T01:13:32.733Z,55.76
2017-08-14T01:14:42.657Z,56.14
2017-08-14T01:15:52.572Z,55.85
2017-08-14T01:17:02.495Z,56.24
2017-08-14T01:18:12.721Z,56.14
2017-08-14T01:19:22.947Z,56.04
2017-08-14T01:20:33.172Z,56.14
2017-08-14T01:21:43.143Z,56.04
2017-08-14T01:22:53.385Z,56.14
2017-08-14T01:24:03.324Z,56.04
2017-08-14T01:25:13.561Z,56.04
2017-08-14T01:26:23.491Z,56.14
2017-08-14T01:27:33.117Z,55.94
2017-08-14T01:28:42.748Z,56.14
2017-08-14T01:29:52.356Z,56.33
2017-08-14T01:31:02.587Z,55.94
2017-08-14T01:32:12.810Z,55.94
2017-08-14T01:33:22.584Z,56.14
2017-08-14T01:34:32.508Z,56.04
2017-08-14T01:35:42.729Z,55.85
2017-08-14T01:36:52.660Z,55.85
2017-08-14T01:38:02.587Z,55.85
2017-08-14T01:39:12.962Z,56.14
2017-08-14T01:40:22.894Z,56.14
2017-08-14T01:41:32.188Z,56.04
2017-08-14T01:42:42.115Z,56.04
2017-08-14T01:43:51.722Z,56.24
2017-08-14T01:45:02.018Z,55.94
2017-08-14T01:46:11.963Z,56.04
2017-08-14T01:47:21.274Z,56.14
2017-08-14T01:48:31.206Z,56.14
2017-08-14T01:49:41.442Z,56.14
2017-08-14T01:50:51.515Z,55.76
2017-08-14T01:52:01.437Z,56.04
2017-08-14T01:53:10.744Z,56.14
2017-08-14T01:54:20.998Z,56.52
2017-08-14T01:55:30.912Z,56.52
2017-08-14T01:56:40.990Z,56.98
2017-08-14T01:57:50.919Z,57.37
2017-08-14T01:59:01.154Z,57.65
2017-08-14T02:00:11.387Z,57.85
2017-08-14T02:01:21.018Z,57.72
2017-08-14T02:02:31.259Z,57.82
2017-08-14T02:03:41.197Z,57.82
2017-08-14T02:04:51.433Z,57.75
2017-08-14T02:06:01.679Z,58.04
2017-08-14T02:07:11.598Z,57.82
2017-08-14T02:08:21.682Z,57.65
2017-08-14T02:09:31.609Z,57.75
2017-08-14T02:10:41.555Z,57.72
2017-08-14T02:11:51.472Z,57.92
2017-08-14T02:13:01.397Z,57.62
2017-08-14T02:14:11.432Z,57.82
2017-08-14T02:15:21.065Z,57.92
2017-08-14T02:16:31.009Z,57.53
2017-08-14T02:17:40.934Z,57.62
2017-08-14T02:18:51.155Z,57.72
2017-08-14T02:20:01.069Z,57.53
2017-08-14T02:21:11.010Z,57.53
2017-08-14T02:22:20.630Z,57.53
2017-08-14T02:23:30.547Z,57.53
2017-08-14T02:24:40.787Z,57.72
2017-08-14T02:25:50.817Z,57.82
2017-08-14T02:27:00.733Z,57.53
2017-08-14T02:28:10.656Z,57.72
2017-08-14T02:29:20.263Z,57.82
2017-08-14T02:30:29.556Z,57.62
2017-08-14T02:31:39.297Z,58.2
2017-08-14T02:32:48.923Z,58.3
2017-08-14T02:33:59.141Z,58.78
2017-08-14T02:35:09.062Z,58.65
2017-08-14T02:36:18.682Z,58.56
2017-08-14T02:37:28.300Z,59.33
2017-08-14T02:38:38.515Z,59.33
2017-08-14T02:39:48.743Z,59.23
2017-08-14T02:40:58.990Z,59.33
2017-08-14T02:42:09.245Z,59.33
2017-08-14T02:43:19.632Z,59.4
2017-08-14T02:44:29.559Z,59.01
2017-08-14T02:45:39.794Z,59.11
2017-08-14T02:46:50.039Z,59.11
2017-08-14T02:47:59.955Z,59.11
2017-08-14T02:49:10.330Z,59.01
2017-08-14T02:50:20.241Z,59.01
2017-08-14T02:51:30.472Z,59.4
2017-08-14T02:52:40.106Z,59.59
2017-08-14T02:53:50.039Z,59.2
2017-08-14T02:54:59.955Z,59.01
2017-08-14T02:56:09.893Z,59.3
2017-08-14T02:57:19.190Z,59.11
2017-08-14T02:58:29.414Z,59.01
2017-08-14T02:59:39.348Z,58.92
2017-08-14T03:00:49.277Z,58.56
2017-08-14T03:01:58.925Z,58.75
2017-08-14T03:03:09.147Z,58.27
2017-08-14T03:04:19.393Z,58.47
2017-08-14T03:05:29.622Z,57.69
2017-08-14T03:06:39.701Z,57.82
2017-08-14T03:07:49.936Z,58.11
2017-08-14T03:09:00.163Z,57.62
2017-08-14T03:10:10.401Z,57.53
2017-08-14T03:11:20.025Z,57.14
2017-08-14T03:12:29.934Z,57.14
2017-08-14T03:13:39.550Z,56.85
2017-08-14T03:14:49.181Z,57.05
2017-08-14T03:15:59.429Z,57.07
2017-08-14T03:17:09.350Z,56.98
2017-08-14T03:18:19.890Z,56.21
2017-08-14T03:19:30.109Z,56.49
2017-08-14T03:20:40.330Z,56.49
2017-08-14T03:21:50.253Z,56.49
2017-08-14T03:23:00.176Z,56.49
2017-08-14T03:24:10.253Z,56.4
2017-08-14T03:25:20.715Z,56.49
2017-08-14T03:26:29.718Z,56.49
2017-08-14T03:27:39.637Z,56.49
2017-08-14T03:28:49.256Z,56.49
2017-08-14T03:29:59.327Z,56.69
2017-08-14T03:31:09.259Z,56.69
2017-08-14T03:32:19.179Z,56.59
2017-08-14T03:33:29.417Z,56.69
2017-08-14T03:34:39.669Z,56.49
2017-08-14T03:35:50.048Z,56.49
2017-08-14T03:36:59.982Z,56.79
2017-08-14T03:38:09.600Z,56.59
2017-08-14T03:39:18.952Z,57.07
2017-08-14T03:40:29.190Z,57.17
2017-08-14T03:41:39.406Z,57.07
2017-08-14T03:42:49.649Z,56.88
2017-08-14T03:43:58.953Z,56.98
2017-08-14T03:45:08.916Z,57.14
2017-08-14T03:46:19.151Z,57.34
2017-08-14T03:47:29.122Z,57.62
2017-08-14T03:48:38.780Z,57.53
2017-08-14T03:49:48.423Z,57.62
2017-08-14T03:50:58.064Z,58.4
2017-08-14T03:52:07.987Z,58.4
2017-08-14T03:53:18.356Z,58.65
2017-08-14T03:54:28.588Z,58.65
2017-08-14T03:55:38.509Z,58.75
2017-08-14T03:56:48.450Z,58.65
2017-08-14T03:57:58.384Z,58.95
2017-08-14T03:59:08.777Z,59.33
2017-08-14T04:00:18.712Z,59.33
2017-08-14T04:01:28.953Z,59.14
2017-08-14T04:02:38.587Z,59.11
2017-08-14T04:03:48.812Z,59.11
2017-08-14T04:04:58.888Z,59.3
2017-08-14T04:06:08.832Z,59.49
2017-08-14T04:07:18.766Z,59.3
2017-08-14T04:08:28.384Z,59.2
2017-08-14T04:09:38.306Z,59.01
2017-08-14T04:10:48.678Z,58.63
2017-08-14T04:11:58.282Z,58.37
2017-08-14T04:13:08.205Z,58.75
2017-08-14T04:14:18.126Z,58.27
2017-08-14T04:15:28.350Z,58.17
2017-08-14T04:16:38.434Z,57.89
2017-08-14T04:17:48.676Z,57.69
2017-08-14T04:18:58.909Z,57.79
2017-08-14T04:20:08.851Z,57.72
2017-08-14T04:21:19.072Z,58.01
2017-08-14T04:22:29.458Z,57.62
2017-08-14T04:23:39.713Z,58.49
2017-08-14T04:24:49.636Z,58.17
2017-08-14T04:25:59.559Z,58.27
2017-08-14T04:27:09.792Z,58.17
2017-08-14T04:28:19.725Z,58.65
2017-08-14T04:29:29.329Z,58.37
2017-08-14T04:30:39.267Z,58.27
2017-08-14T04:31:49.186Z,58.47
2017-08-14T04:32:59.128Z,58.65
2017-08-14T04:34:09.046Z,58.65
2017-08-14T04:35:18.675Z,58.56
2017-08-14T04:36:28.305Z,58.65
2017-08-14T04:37:38.231Z,58.65
2017-08-14T04:38:48.169Z,58.56
2017-08-14T04:39:58.554Z,58.47
2017-08-14T04:41:08.470Z,58.56
2017-08-14T04:42:18.704Z,58.27
2017-08-14T04:43:28.949Z,57.98
2017-08-14T04:44:38.907Z,58.08
2017-08-14T04:45:48.643Z,58.27
2017-08-14T04:46:58.596Z,58.27
2017-08-14T04:48:08.201Z,58.75
2017-08-14T04:49:17.811Z,58.47
2017-08-14T04:50:28.041Z,58.47
2017-08-14T04:51:38.114Z,58.63
2017-08-14T04:52:47.733Z,58.72
2017-08-14T04:53:57.976Z,59.01
2017-08-14T04:55:08.208Z,59.4
2017-08-14T04:56:18.452Z,59.11
2017-08-14T04:57:28.832Z,59.11
2017-08-14T04:58:38.769Z,59.11
2017-08-14T04:59:48.392Z,59.3
2017-08-14T05:00:58.012Z,59.01
2017-08-14T05:02:08.281Z,59.4
2017-08-14T05:03:18.612Z,59.2
2017-08-14T05:04:27.911Z,59.4
2017-08-14T05:05:37.520Z,59.3
2017-08-14T05:06:47.428Z,60.17
2017-08-14T05:07:57.653Z,59.78
2017-08-14T05:09:07.726Z,59.75
2017-08-14T05:10:17.345Z,59.85
2017-08-14T05:11:27.278Z,59.56
2017-08-14T05:12:37.201Z,59.66
2017-08-14T05:13:47.158Z,59.75
2017-08-14T05:14:56.923Z,59.78
2017-08-14T05:16:06.849Z,58.92
2017-08-14T05:17:16.475Z,59.4
2017-08-14T05:18:26.078Z,59.01
2017-08-14T05:19:36.307Z,59.2
2017-08-14T05:20:45.926Z,58.82
2017-08-14T05:21:55.877Z,58.92
2017-08-14T05:23:05.806Z,59.01
2017-08-14T05:24:16.045Z,58.82
2017-08-14T05:25:25.661Z,58.72
2017-08-14T05:26:35.593Z,58.34
2017-08-14T05:27:45.212Z,58.63
2017-08-14T05:28:55.137Z,58.27
2017-08-14T05:30:04.838Z,58.37
2017-08-14T05:31:14.168Z,57.89
2017-08-14T05:32:24.264Z,57.72
2017-08-14T05:33:34.527Z,57.05
2017-08-14T05:34:44.764Z,56.95
2017-08-14T05:35:54.065Z,56.47
2017-08-14T05:37:03.402Z,56.37
2017-08-14T05:38:13.432Z,55.73
2017-08-14T05:39:23.049Z,56.01
2017-08-14T05:40:32.352Z,56.01
2017-08-14T05:41:41.969Z,56.01
2017-08-14T05:42:51.890Z,56.01
2017-08-14T05:44:02.173Z,56.3
2017-08-14T05:45:12.095Z,56.21
2017-08-14T05:46:22.027Z,56.01
2017-08-14T05:47:31.959Z,56.11
2017-08-14T05:48:41.865Z,56.01
2017-08-14T05:49:52.243Z,56.11
2017-08-14T05:51:02.488Z,56.01
2017-08-14T05:52:12.411Z,56.01
2017-08-14T05:53:22.342Z,55.82
2017-08-14T05:54:31.654Z,56.04
2017-08-14T05:55:41.894Z,55.94
2017-08-14T05:56:52.152Z,55.46
2017-08-14T05:58:02.872Z,54.69
2017-08-14T05:59:13.334Z,54.79
2017-08-14T06:00:23.363Z,54.43
2017-08-14T06:01:32.845Z,54.14
2017-08-14T06:02:43.164Z,53.95
2017-08-14T06:03:53.124Z,53.88
2017-08-14T06:05:03.588Z,54.36
2017-08-14T06:06:14.241Z,53.3
2017-08-14T06:07:24.195Z,53.39
2017-08-14T06:08:34.608Z,53.03
2017-08-14T06:09:44.613Z,53.13
2017-08-14T06:10:55.730Z,52.75
2017-08-14T06:12:05.479Z,52.48
2017-08-14T06:13:15.460Z,52.09
2017-08-14T06:14:25.614Z,52.19
2017-08-14T06:15:35.849Z,51.71
2017-08-14T06:16:45.466Z,51.93
2017-08-14T06:17:54.788Z,51.93
2017-08-14T06:19:05.202Z,51.54
2017-08-14T06:20:15.155Z,51.44
2017-08-14T06:21:25.078Z,51.64
2017-08-14T06:22:34.702Z,51.93
2017-08-14T06:23:44.305Z,52.02
2017-08-14T06:24:54.548Z,51.83
2017-08-14T06:26:04.474Z,51.93
2017-08-14T06:27:14.107Z,51.93
2017-08-14T06:28:24.038Z,52.12
2017-08-14T06:29:33.956Z,52.22
2017-08-14T06:30:44.045Z,52.8
2017-08-14T06:31:53.689Z,52.51
2017-08-14T06:33:03.624Z,52.22
2017-08-14T06:34:13.537Z,52.99
2017-08-14T06:35:23.763Z,52.8
2017-08-14T06:36:33.688Z,52.99
2017-08-14T06:37:43.297Z,52.8
2017-08-14T06:38:53.542Z,52.67
2017-08-14T06:40:03.459Z,52.97
2017-08-14T06:41:13.109Z,53.19
2017-08-14T06:42:23.457Z,53.47
2017-08-14T06:43:33.364Z,53.16
2017-08-14T06:44:42.990Z,53.19
2017-08-14T06:45:52.605Z,52.97
2017-08-14T06:47:02.835Z,53.06
2017-08-14T06:48:12.299Z,52.97
2017-08-14T06:49:22.223Z,53.25
2017-08-14T06:50:32.445Z,53.35
2017-08-14T06:51:42.072Z,53.64
2017-08-14T06:52:52.344Z,53.35
2017-08-14T06:54:02.027Z,53.35
2017-08-14T06:55:11.655Z,53.57
2017-08-14T06:56:22.275Z,53.55
2017-08-14T06:57:33.297Z,53.35
2017-08-14T06:58:43.003Z,53.25
2017-08-14T06:59:52.619Z,53.38
2017-08-14T07:01:02.858Z,53.45
2017-08-14T07:02:12.476Z,53.38
2017-08-14T07:03:22.420Z,53.38
2017-08-14T07:04:32.379Z,53.47
2017-08-14T07:05:42.366Z,53.47
2017-08-14T07:06:52.308Z,53.19
2017-08-14T07:08:02.245Z,53.57
2017-08-14T07:09:12.488Z,53.35
2017-08-14T07:10:22.726Z,53.64
2017-08-14T07:11:32.076Z,53.83
2017-08-14T07:12:42.003Z,53.45
2017-08-14T07:13:52.246Z,54.13
2017-08-14T07:15:02.496Z,54.22
2017-08-14T07:16:12.456Z,54.22
2017-08-14T07:17:22.795Z,54.29
2017-08-14T07:18:33.043Z,54.32
2017-08-14T07:19:42.965Z,54.49
2017-08-14T07:20:52.582Z,54.39
2017-08-14T07:22:02.213Z,54.32
2017-08-14T07:23:12.275Z,54.49
2017-08-14T07:24:22.563Z,54.22
2017-08-14T07:25:32.169Z,54.41
2017-08-14T07:26:42.397Z,54.22
2017-08-14T07:27:52.312Z,54.13
2017-08-14T07:29:02.241Z,53.45
2017-08-14T07:30:12.164Z,52.8
2017-08-14T07:31:21.792Z,51.18
2017-08-14T07:32:31.749Z,49.68
2017-08-14T07:33:42.193Z,48.57
2017-08-14T07:34:52.133Z,46.84
2017-08-14T07:36:02.388Z,45.82
2017-08-14T07:37:11.718Z,44.87
2017-08-14T07:38:21.360Z,44.21
2017-08-14T07:39:31.282Z,44.53
2017-08-14T07:40:40.952Z,44.6
2017-08-14T07:41:50.926Z,44.43
2017-08-14T07:43:01.185Z,44.06
2017-08-14T07:44:11.457Z,43.11
2017-08-14T07:45:21.411Z,42.63
2017-08-14T07:46:31.405Z,42.74
2017-08-14T07:47:41.648Z,42.08
2017-08-14T07:48:50.657Z,41.6
2017-08-14T07:50:00.883Z,41.42
2017-08-14T07:51:10.493Z,41.03
2017-08-14T07:52:20.417Z,41.25
2017-08-14T07:53:30.349Z,40.95
2017-08-14T07:54:39.964Z,40.78
2017-08-14T07:55:49.576Z,40.78
2017-08-14T07:56:59.198Z,40.97
2017-08-14T07:58:09.207Z,40.97
2017-08-14T07:59:19.461Z,40.8
2017-08-14T08:00:29.380Z,40.89
2017-08-14T08:01:39.312Z,41.09
2017-08-14T08:02:48.931Z,41.17
2017-08-14T08:03:59.209Z,41.27
2017-08-14T08:05:09.148Z,41.46
2017-08-14T08:06:19.098Z,41.75
2017-08-14T08:07:29.341Z,42.34
2017-08-14T08:08:39.632Z,42.32
2017-08-14T08:09:49.728Z,42.34
2017-08-14T08:10:59.963Z,42.71
2017-08-14T08:12:09.894Z,42.9
2017-08-14T08:13:20.123Z,43.37
2017-08-14T08:14:30.063Z,43.57
2017-08-14T08:15:39.774Z,43.66
2017-08-14T08:16:49.101Z,44.05
2017-08-14T08:17:59.027Z,43.95
2017-08-14T08:19:08.639Z,44.42
2017-08-14T08:20:18.568Z,44.62
2017-08-14T08:21:28.875Z,44.52
2017-08-14T08:22:38.805Z,44.52
2017-08-14T08:23:48.725Z,44.79
2017-08-14T08:24:58.024Z,45.29
2017-08-14T08:26:08.254Z,45.08
2017-08-14T08:27:18.643Z,44.98
2017-08-14T08:28:28.255Z,44.79
2017-08-14T08:29:38.503Z,45.37
2017-08-14T08:30:48.752Z,45.28
2017-08-14T08:31:58.995Z,45.37
2017-08-14T08:33:08.763Z,45.18
2017-08-14T08:34:18.724Z,44.98
2017-08-14T08:35:28.659Z,45.08
2017-08-14T08:36:38.900Z,45.1
2017-08-14T08:37:48.852Z,44.62
2017-08-14T08:38:59.178Z,44.62
2017-08-14T08:40:09.115Z,44.44
2017-08-14T08:41:19.357Z,43.95
2017-08-14T08:42:28.989Z,44.24
2017-08-14T08:43:38.907Z,43.98
2017-08-14T08:44:49.030Z,43.88
2017-08-14T08:45:58.337Z,44.07
2017-08-14T08:47:07.680Z,44.24
2017-08-14T08:48:17.634Z,44.54
2017-08-14T08:49:27.244Z,45.2
2017-08-14T08:50:37.519Z,46.05
2017-08-14T08:51:47.801Z,46.05
2017-08-14T08:52:57.457Z,47.1
2017-08-14T08:54:06.777Z,47.47
2017-08-14T08:55:17.017Z,47.66
2017-08-14T08:56:26.967Z,48.51
2017-08-14T08:57:36.934Z,49
2017-08-14T08:58:46.885Z,48.97
2017-08-14T08:59:56.843Z,48.78
2017-08-14T09:01:06.781Z,49.37
2017-08-14T09:02:16.589Z,49.95
2017-08-14T09:03:25.905Z,50.12
2017-08-14T09:04:35.623Z,50.12
2017-08-14T09:05:45.544Z,50.31
2017-08-14T09:06:55.462Z,50.6
2017-08-14T09:08:05.768Z,50.58
2017-08-14T09:09:15.711Z,50.68
2017-08-14T09:10:24.721Z,51.04
2017-08-14T09:11:34.956Z,51.33
2017-08-14T09:12:45.190Z,51.53
2017-08-14T09:13:54.993Z,51.62
2017-08-14T09:15:04.320Z,51.53
2017-08-14T09:16:14.252Z,51.89
2017-08-14T09:17:24.503Z,51.98
2017-08-14T09:18:33.823Z,51.98
2017-08-14T09:19:43.467Z,52.08
2017-08-14T09:20:53.131Z,52.15
2017-08-14T09:22:02.767Z,52.18
2017-08-14T09:23:12.091Z,52.44
2017-08-14T09:24:22.038Z,52.34
2017-08-14T09:25:31.998Z,52.93
2017-08-14T09:26:42.255Z,52.73
2017-08-14T09:27:51.900Z,52.64
2017-08-14T09:29:02.167Z,52.83
2017-08-14T09:30:12.107Z,53.02
2017-08-14T09:31:22.398Z,53.09
2017-08-14T09:32:32.048Z,53.67
2017-08-14T09:33:41.888Z,53.49
2017-08-14T09:34:51.880Z,53.19
2017-08-14T09:36:02.133Z,53.39
2017-08-14T09:37:12.222Z,53.49
2017-08-14T09:38:22.484Z,53.49
2017-08-14T09:39:32.426Z,53.77
2017-08-14T09:40:42.045Z,53.29
2017-08-14T09:41:51.683Z,53.17
2017-08-14T09:43:01.648Z,53.19
2017-08-14T09:44:11.314Z,53.26
2017-08-14T09:45:21.252Z,53.45
2017-08-14T09:46:30.898Z,53.65
2017-08-14T09:47:40.832Z,53.65
2017-08-14T09:48:50.609Z,53.36
2017-08-14T09:50:00.267Z,53.45
2017-08-14T09:51:09.912Z,53.45
2017-08-14T09:52:19.897Z,53.55
2017-08-14T09:53:29.541Z,53.26
2017-08-14T09:54:39.218Z,53.65
2017-08-14T09:55:48.861Z,54.03
2017-08-14T09:56:58.812Z,53.85
2017-08-14T09:58:08.764Z,53.65
2017-08-14T09:59:18.430Z,53.65
2017-08-14T10:00:28.101Z,53.75
2017-08-14T10:01:38.371Z,53.65
2017-08-14T10:02:48.707Z,53.55
2017-08-14T10:03:58.974Z,53.65
2017-08-14T10:05:09.305Z,53.65
2017-08-14T10:06:19.124Z,53.55
2017-08-14T10:07:29.089Z,54.13
2017-08-14T10:08:39.337Z,53.63
2017-08-14T10:09:48.981Z,53.55
2017-08-14T10:10:59.064Z,53.63
2017-08-14T10:12:09.373Z,53.53
2017-08-14T10:13:19.373Z,53.45
2017-08-14T10:14:29.061Z,53.94
2017-08-14T10:15:39.070Z,53.91
2017-08-14T10:16:49.124Z,53.91
2017-08-14T10:17:58.800Z,53.63
2017-08-14T10:19:08.739Z,53.45
2017-08-14T10:20:18.414Z,53.33
2017-08-14T10:21:28.658Z,53.85
2017-08-14T10:22:38.648Z,53.81
2017-08-14T10:23:48.665Z,53.72
2017-08-14T10:24:58.291Z,53.63
2017-08-14T10:26:07.328Z,53.45
2017-08-14T10:27:17.265Z,53.43
2017-08-14T10:28:27.204Z,53.81
2017-08-14T10:29:37.509Z,53.43
2017-08-14T10:30:47.758Z,53.81
2017-08-14T10:31:57.713Z,53.43
2017-08-14T10:33:07.655Z,53.53
2017-08-14T10:34:17.901Z,53.43
2017-08-14T10:35:27.662Z,53.72
2017-08-14T10:36:37.930Z,53.53
2017-08-14T10:37:47.866Z,53.63
2017-08-14T10:38:58.115Z,53.91
2017-08-14T10:40:08.725Z,54.01
2017-08-14T10:41:18.464Z,53.63
2017-08-14T10:42:28.731Z,53.53
2017-08-14T10:43:38.650Z,53.63
2017-08-14T10:44:48.294Z,54.3
2017-08-14T10:45:58.244Z,54.11
2017-08-14T10:47:07.867Z,54.21
2017-08-14T10:48:17.485Z,54.11
2017-08-14T10:49:27.116Z,54.11
2017-08-14T10:50:37.039Z,54.21
2017-08-14T10:51:47.265Z,53.72
2017-08-14T10:52:57.820Z,54.11
2017-08-14T10:54:08.050Z,54.11
2017-08-14T10:55:17.988Z,54.21
2017-08-14T10:56:27.942Z,53.72
2017-08-14T10:57:38.170Z,54.11
2017-08-14T10:58:48.252Z,54.11
2017-08-14T10:59:57.868Z,54.01
2017-08-14T11:01:08.257Z,54.08
2017-08-14T11:02:18.511Z,54.11
2017-08-14T11:03:28.167Z,54.21
2017-08-14T11:04:38.649Z,54.01
2017-08-14T11:05:48.263Z,54.21
2017-08-14T11:06:58.502Z,53.72
2017-08-14T11:08:08.420Z,54.21
2017-08-14T11:09:18.042Z,54.11
2017-08-14T11:10:28.343Z,54.11
2017-08-14T11:11:38.574Z,53.72
2017-08-14T11:12:48.493Z,54.17
2017-08-14T11:13:58.751Z,54.21
2017-08-14T11:15:08.707Z,54.08
2017-08-14T11:16:18.747Z,54.08
2017-08-14T11:17:28.721Z,54.11
2017-08-14T11:18:38.680Z,54.21
2017-08-14T11:19:48.635Z,54.17
2017-08-14T11:20:58.887Z,54.3
2017-08-14T11:22:08.375Z,53.63
2017-08-14T11:23:18.311Z,53.72
2017-08-14T11:24:28.248Z,53.59
2017-08-14T11:25:37.899Z,53.59
2017-08-14T11:26:47.892Z,53.63
2017-08-14T11:27:58.300Z,53.53
2017-08-14T11:29:08.240Z,53.72
2017-08-14T11:30:18.199Z,53.5
2017-08-14T11:31:27.822Z,53.99
2017-08-14T11:32:37.141Z,53.59
2017-08-14T11:33:47.108Z,53.69
2017-08-14T11:34:56.728Z,53.59
2017-08-14T11:36:06.685Z,53.5
2017-08-14T11:37:16.622Z,53.5
2017-08-14T11:38:25.952Z,53.59
2017-08-14T11:39:36.062Z,53.79
2017-08-14T11:40:46.000Z,53.79
2017-08-14T11:41:56.234Z,53.5
2017-08-14T11:43:06.491Z,53.41
2017-08-14T11:44:16.736Z,53.69
2017-08-14T11:45:26.995Z,53.5
2017-08-14T11:46:36.631Z,53.79
2017-08-14T11:47:46.893Z,53.79
2017-08-14T11:48:56.518Z,53.63
2017-08-14T11:50:06.451Z,53.79
2017-08-14T11:51:16.420Z,53.59
2017-08-14T11:52:25.733Z,53.69
2017-08-14T11:53:36.033Z,54.11
2017-08-14T11:54:46.004Z,53.72
2017-08-14T11:55:56.265Z,53.63
2017-08-14T11:57:05.723Z,53.59
2017-08-14T11:58:15.679Z,53.81
2017-08-14T11:59:25.632Z,53.59
2017-08-14T12:00:34.943Z,53.81
2017-08-14T12:01:44.874Z,53.43
2017-08-14T12:02:54.962Z,53.53
2017-08-14T12:04:05.202Z,53.99
2017-08-14T12:05:15.535Z,53.69
2017-08-14T12:06:25.482Z,53.33
2017-08-14T12:07:35.427Z,53.5
2017-08-14T12:08:44.736Z,53.41
2017-08-14T12:09:55.121Z,53.41
2017-08-14T12:11:04.438Z,53.41
2017-08-14T12:12:14.060Z,53.69
2017-08-14T12:13:23.386Z,53.21
2017-08-14T12:14:33.200Z,53.21
2017-08-14T12:15:42.881Z,53.21
2017-08-14T12:16:52.812Z,53.41
2017-08-14T12:18:03.459Z,53.43
2017-08-14T12:19:13.733Z,53.43
2017-08-14T12:20:23.706Z,53.33
2017-08-14T12:21:33.961Z,53.41
2017-08-14T12:22:43.580Z,53.63
2017-08-14T12:23:52.906Z,53.33
2017-08-14T12:25:02.866Z,53.33
2017-08-14T12:26:13.098Z,53.43
2017-08-14T12:27:23.037Z,53.41
2017-08-14T12:28:32.658Z,53.53
2017-08-14T12:29:41.967Z,53.69
2017-08-14T12:30:52.223Z,53.69
2017-08-14T12:32:01.896Z,53.14
2017-08-14T12:33:10.905Z,53.53
2017-08-14T12:34:20.520Z,53.33
2017-08-14T12:35:30.133Z,53.23
2017-08-14T12:36:40.382Z,53.63
2017-08-14T12:37:50.189Z,53.33
2017-08-14T12:39:00.149Z,53.31
2017-08-14T12:40:10.373Z,53.33
2017-08-14T12:41:19.986Z,53.43
2017-08-14T12:42:29.916Z,53.53
2017-08-14T12:43:39.626Z,53.33
2017-08-14T12:44:49.858Z,53.43
2017-08-14T12:45:59.163Z,53.53
2017-08-14T12:47:09.093Z,53.33
2017-08-14T12:48:18.728Z,53.53
2017-08-14T12:49:28.461Z,53.43
2017-08-14T12:50:37.776Z,53.63
2017-08-14T12:51:47.428Z,53.63
2017-08-14T12:52:57.352Z,53.41
2017-08-14T12:54:06.966Z,53.72
2017-08-14T12:55:17.009Z,53.23
2017-08-14T12:56:26.647Z,53.63
2017-08-14T12:57:36.576Z,53.63
2017-08-14T12:58:46.513Z,53.63
2017-08-14T12:59:56.145Z,53.63
2017-08-14T13:01:06.187Z,53.53
2017-08-14T13:02:15.804Z,53.33
2017-08-14T13:03:25.717Z,53.33
2017-08-14T13:04:35.942Z,53.63
2017-08-14T13:05:46.170Z,53.63
2017-08-14T13:06:56.097Z,53.63
2017-08-14T13:08:05.109Z,53.33
2017-08-14T13:09:15.034Z,53.33
2017-08-14T13:10:24.962Z,53.33
2017-08-14T13:11:34.884Z,53.43
2017-08-14T13:12:44.648Z,53.23
2017-08-14T13:13:54.584Z,53.04
2017-08-14T13:15:04.837Z,53.33
2017-08-14T13:16:15.071Z,53.33
2017-08-14T13:17:25.288Z,53.14
2017-08-14T13:18:35.361Z,53.14
2017-08-14T13:19:45.282Z,53.04
2017-08-14T13:20:55.203Z,53.04
2017-08-14T13:22:05.119Z,53.23
2017-08-14T13:23:14.731Z,53.23
2017-08-14T13:24:24.806Z,53.23
2017-08-14T13:25:34.122Z,53.14
2017-08-14T13:26:44.368Z,53.04
2017-08-14T13:27:54.035Z,53.23
2017-08-14T13:29:04.015Z,53.14
2017-08-14T13:30:14.289Z,53.14
2017-08-14T13:31:24.237Z,53.33
2017-08-14T13:32:33.890Z,53.33
2017-08-14T13:33:43.857Z,53.43
2017-08-14T13:34:54.390Z,53.43
2017-08-14T13:36:04.670Z,53.23
2017-08-14T13:37:14.298Z,52.95
2017-08-14T13:38:24.232Z,52.95
2017-08-14T13:39:33.887Z,53.43
2017-08-14T13:40:44.177Z,53.23
2017-08-14T13:41:53.980Z,52.75
2017-08-14T13:43:03.640Z,53.53
2017-08-14T13:44:13.619Z,53.53
2017-08-14T13:45:23.629Z,53.53
2017-08-14T13:46:33.585Z,53.53
2017-08-14T13:47:43.811Z,53.14
2017-08-14T13:48:53.434Z,53.53
2017-08-14T13:50:03.075Z,53.43
2017-08-14T13:51:12.682Z,53.53
2017-08-14T13:52:22.610Z,52.85
2017-08-14T13:53:32.589Z,53.53
2017-08-14T13:54:41.895Z,52.85
2017-08-14T13:55:51.816Z,53.63
2017-08-14T13:57:01.750Z,53.53
2017-08-14T13:58:11.984Z,53.53
2017-08-14T13:59:21.163Z,53.43
2017-08-14T14:00:31.100Z,53.63
2017-08-14T14:01:41.129Z,52.75
2017-08-14T14:02:51.354Z,52.75
2017-08-14T14:04:01.292Z,52.68
2017-08-14T14:05:11.275Z,52.95
2017-08-14T14:06:21.195Z,52.46
2017-08-14T14:07:31.149Z,52.95
2017-08-14T14:08:41.402Z,53.04
2017-08-14T14:09:51.325Z,52.95
2017-08-14T14:11:01.391Z,52.97
2017-08-14T14:12:11.319Z,52.75
2017-08-14T14:13:21.552Z,52.68
2017-08-14T14:14:30.871Z,52.56
2017-08-14T14:15:40.808Z,52.97
2017-08-14T14:16:50.731Z,52.95
2017-08-14T14:18:00.964Z,52.85
2017-08-14T14:19:10.601Z,53.07
2017-08-14T14:20:19.918Z,53.07
2017-08-14T14:21:30.151Z,53.23
2017-08-14T14:22:40.118Z,52.75
2017-08-14T14:23:50.348Z,53.53
2017-08-14T14:24:59.967Z,53.14
2017-08-14T14:26:10.211Z,53.53
2017-08-14T14:27:20.452Z,53.63
2017-08-14T14:28:30.527Z,53.55
2017-08-14T14:29:40.467Z,53.17
2017-08-14T14:30:50.407Z,52.66
2017-08-14T14:32:00.335Z,53.07
2017-08-14T14:33:10.577Z,53.17
2017-08-14T14:34:20.970Z,52.56
2017-08-14T14:35:30.890Z,53.04
2017-08-14T14:36:40.818Z,53.04
2017-08-14T14:37:50.426Z,53.07
2017-08-14T14:39:00.342Z,53.26
2017-08-14T14:40:10.568Z,53.14
2017-08-14T14:41:20.311Z,53.65
2017-08-14T14:42:30.549Z,53.17
2017-08-14T14:43:40.495Z,52.75
2017-08-14T14:44:50.427Z,53.55
2017-08-14T14:46:00.052Z,52.78
2017-08-14T14:47:10.280Z,53.53
2017-08-14T14:48:20.504Z,53.63
2017-08-14T14:49:30.436Z,53.55
2017-08-14T14:50:40.668Z,53.75
2017-08-14T14:51:51.207Z,52.75
2017-08-14T14:53:01.445Z,53.53
2017-08-14T14:54:11.687Z,52.85
2017-08-14T14:55:21.937Z,52.95
2017-08-14T14:56:31.569Z,52.85
2017-08-14T14:57:41.870Z,52.85
2017-08-14T14:58:52.111Z,53.53
2017-08-14T15:00:01.730Z,52.95
2017-08-14T15:01:11.356Z,53.33
2017-08-14T15:02:21.002Z,53.23
2017-08-14T15:03:31.280Z,53.43